createdAt,value
2018-01-22T00:02:00.489Z,15.30
2018-01-22T00:04:30.087Z,12.90
2018-01-22T00:18:25.679Z,10.74
2018-01-22T00:20:54.907Z,9.94
2018-01-22T00:23:23.179Z,13.48
2018-01-22T00:25:57.145Z,11.58
2018-01-22T00:28:25.430Z,11.30
2018-01-22T00:30:57.135Z,9.62
2018-01-22T00:33:25.422Z,9.98
2018-01-22T00:35:55.706Z,16.36
2018-01-22T00:38:23.963Z,9.94
2018-01-22T00:40:59.250Z,7.22
2018-01-22T00:43:28.258Z,13.62
2018-01-22T00:45:58.570Z,13.18
2018-01-22T00:48:26.819Z,9.80
2018-01-22T00:50:55.066Z,12.72
2018-01-22T00:53:23.345Z,9.62
2018-01-22T00:55:52.546Z,17.68
2018-01-22T00:58:20.834Z,11.58
2018-01-22T01:00:49.094Z,10.78
2018-01-22T01:03:17.351Z,13.44
2018-01-22T01:05:46.634Z,12.80
2018-01-22T01:08:14.874Z,12.12
2018-01-22T01:10:44.254Z,14.72
2018-01-22T01:13:12.540Z,10.50
2018-01-22T01:15:40.857Z,14.08
2018-01-22T01:18:09.106Z,10.86
2018-01-22T01:20:38.378Z,10.92
2018-01-22T01:23:06.639Z,9.28
2018-01-22T01:25:41.113Z,13.46
2018-01-22T01:28:09.371Z,13.34
2018-01-22T01:30:41.429Z,10.54
2018-01-22T01:33:09.686Z,8.94
2018-01-22T01:35:38.973Z,11.52
2018-01-22T01:38:07.222Z,12.68
2018-01-22T01:40:35.591Z,14.52
2018-01-22T01:43:03.850Z,13.04
2018-01-22T01:45:32.107Z,11.94
2018-01-22T01:48:00.386Z,14.40
2018-01-22T01:50:29.590Z,12.16
2018-01-22T01:52:58.915Z,12.00
2018-01-22T01:55:27.162Z,16.80
2018-01-22T01:57:55.411Z,9.66
2018-01-22T02:00:23.696Z,8.58
2018-01-22T02:02:51.951Z,8.14
2018-01-22T02:05:22.199Z,16.06
2018-01-22T02:07:50.455Z,9.96
2018-01-22T02:10:18.746Z,9.04
2018-01-22T02:12:47.039Z,11.82
2018-01-22T02:15:16.215Z,15.64
2018-01-22T02:17:44.470Z,10.70
2018-01-22T02:20:13.843Z,9.62
2018-01-22T02:22:42.086Z,8.16
2018-01-22T02:25:10.338Z,10.78
2018-01-22T02:27:42.874Z,9.74
2018-01-22T02:30:14.062Z,10.40
2018-01-22T02:32:42.345Z,13.02
2018-01-22T02:35:10.608Z,10.56
2018-01-22T02:37:38.901Z,9.84
2018-01-22T02:40:07.148Z,10.08
2018-01-22T02:42:35.452Z,11.66
2018-01-22T02:45:03.714Z,8.30
2018-01-22T02:47:31.981Z,12.80
2018-01-22T02:50:00.272Z,9.08
2018-01-22T02:52:28.537Z,9.32
2018-01-22T02:54:56.814Z,8.52
2018-01-22T02:57:26.060Z,9.36
2018-01-22T02:59:54.353Z,8.42
2018-01-22T03:02:23.565Z,9.22
2018-01-22T03:04:51.806Z,10.22
2018-01-22T03:07:20.313Z,10.66
2018-01-22T03:09:48.569Z,10.38
2018-01-22T03:12:16.818Z,11.26
2018-01-22T03:14:45.105Z,12.70
2018-01-22T03:17:14.309Z,14.92
2018-01-22T03:19:42.572Z,10.22
2018-01-22T03:22:11.770Z,12.82
2018-01-22T03:24:40.065Z,12.62
2018-01-22T03:27:08.337Z,14.50
2018-01-22T03:29:36.853Z,15.14
2018-01-22T03:32:08.252Z,13.56
2018-01-22T03:34:36.533Z,14.82
2018-01-22T03:37:06.820Z,14.12
2018-01-22T03:39:35.066Z,11.26
2018-01-22T03:42:07.305Z,11.86
2018-01-22T03:44:35.600Z,11.90
2018-01-22T03:47:03.865Z,10.58
2018-01-22T03:49:35.349Z,10.32
2018-01-22T03:52:03.669Z,11.02
2018-01-22T03:54:32.117Z,8.86
2018-01-22T03:57:00.385Z,8.78
2018-01-22T03:59:28.965Z,9.86
2018-01-22T04:02:00.427Z,10.20
2018-01-22T04:04:29.010Z,10.96
2018-01-22T04:06:57.304Z,10.24
2018-01-22T04:09:25.620Z,16.62
2018-01-22T04:11:54.808Z,11.98
2018-01-22T04:14:23.116Z,10.18
2018-01-22T04:16:53.367Z,9.14
2018-01-22T04:19:21.629Z,11.16
2018-01-22T04:21:53.297Z,10.98
2018-01-22T04:24:20.800Z,14.36
2018-01-22T04:26:53.485Z,11.16
2018-01-22T04:29:21.773Z,11.76
2018-01-22T04:31:50.036Z,11.76
2018-01-22T04:34:18.312Z,10.48
2018-01-22T04:36:48.519Z,10.72
2018-01-22T04:39:16.809Z,10.98
2018-01-22T04:41:55.781Z,12.80
2018-01-22T04:44:24.028Z,14.00
2018-01-22T04:46:53.244Z,15.54
2018-01-22T04:49:21.525Z,16.72
2018-01-22T04:51:51.819Z,21.28
2018-01-22T04:54:19.320Z,21.22
2018-01-22T04:56:48.583Z,22.88
2018-01-22T04:59:16.880Z,22.70
2018-01-22T05:01:45.130Z,19.92
2018-01-22T05:04:13.405Z,18.88
2018-01-22T05:06:41.932Z,18.30
2018-01-22T05:09:10.209Z,15.32
2018-01-22T05:11:48.437Z,15.48
2018-01-22T05:14:16.691Z,16.04
2018-01-22T05:16:48.868Z,13.80
2018-01-22T05:19:17.139Z,17.32
2018-01-22T05:21:45.444Z,13.72
2018-01-22T05:24:13.711Z,16.64
2018-01-22T05:26:47.961Z,13.98
2018-01-22T05:29:16.260Z,15.94
2018-01-22T05:31:46.548Z,18.68
2018-01-22T05:34:14.933Z,13.20
2018-01-22T05:36:43.199Z,15.28
2018-01-22T05:39:11.465Z,15.74
2018-01-22T05:41:39.767Z,13.54
2018-01-22T05:44:08.017Z,13.76
2018-01-22T05:46:35.537Z,12.26
2018-01-22T05:49:03.832Z,9.14
2018-01-22T05:51:33.073Z,10.48
2018-01-22T05:54:01.337Z,11.58
2018-01-22T05:56:29.603Z,13.52
2018-01-22T05:58:58.578Z,10.00
2018-01-22T06:01:30.076Z,11.24
2018-01-22T06:03:59.254Z,10.40
2018-01-22T06:06:27.573Z,13.42
2018-01-22T06:08:55.852Z,10.08
2018-01-22T06:11:23.379Z,9.44
2018-01-22T06:13:51.635Z,9.54
2018-01-22T06:16:19.932Z,11.30
2018-01-22T06:18:48.185Z,12.80
2018-01-22T06:21:16.475Z,11.48
2018-01-22T06:23:44.740Z,10.20
2018-01-22T06:26:13.025Z,11.00
2018-01-22T06:28:41.310Z,12.50
2018-01-22T06:31:09.572Z,11.60
2018-01-22T06:33:37.852Z,12.60
2018-01-22T06:36:08.091Z,13.82
2018-01-22T06:38:36.369Z,11.66
2018-01-22T06:41:04.621Z,12.18
2018-01-22T06:43:32.911Z,11.56
2018-01-22T06:46:02.127Z,14.48
2018-01-22T06:48:30.409Z,11.80
2018-01-22T06:51:00.034Z,12.84
2018-01-22T06:53:29.272Z,14.70
2018-01-22T06:55:58.323Z,13.20
2018-01-22T06:58:26.615Z,15.96
2018-01-22T07:00:55.881Z,17.52
2018-01-22T07:03:24.157Z,13.28
2018-01-22T07:05:53.399Z,12.96
2018-01-22T07:08:21.706Z,20.14
2018-01-22T07:10:49.941Z,18.26
2018-01-22T07:13:18.188Z,14.34
2018-01-22T07:15:46.461Z,17.84
2018-01-22T07:18:14.737Z,16.26
2018-01-22T07:20:43.013Z,17.56
2018-01-22T07:23:11.297Z,16.10
2018-01-22T07:25:40.523Z,16.36
2018-01-22T07:28:08.805Z,15.42
2018-01-22T07:30:37.068Z,17.08
2018-01-22T07:33:05.345Z,24.80
2018-01-22T07:35:33.665Z,30.78
2018-01-22T07:38:01.936Z,24.64
2018-01-22T07:40:30.185Z,25.30
2018-01-22T07:42:59.401Z,25.50
2018-01-22T07:45:28.573Z,29.82
2018-01-22T07:47:56.844Z,27.74
2018-01-22T07:50:25.128Z,37.42
2018-01-22T07:52:53.392Z,29.82
2018-01-22T07:55:26.232Z,31.38
2018-01-22T07:57:54.528Z,27.50
2018-01-22T08:00:22.824Z,27.44
2018-01-22T08:02:50.323Z,30.82
2018-01-22T08:05:18.609Z,31.52
2018-01-22T08:07:46.899Z,25.26
2018-01-22T08:10:15.200Z,31.10
2018-01-22T08:12:43.462Z,24.04
2018-01-22T08:15:11.749Z,38.42
2018-01-22T08:17:40.011Z,25.12
2018-01-22T08:20:08.304Z,31.42
2018-01-22T08:22:36.565Z,29.78
2018-01-22T08:25:12.582Z,37.32
2018-01-22T08:27:40.829Z,30.34
2018-01-22T08:30:10.041Z,39.78
2018-01-22T08:32:38.331Z,38.78
2018-01-22T08:35:07.560Z,36.96
2018-01-22T08:37:35.864Z,42.76
2018-01-22T08:40:05.057Z,46.16
2018-01-22T08:42:33.323Z,38.80
2018-01-22T08:45:01.620Z,40.84
2018-01-22T08:47:29.884Z,37.80
2018-01-22T08:50:02.003Z,39.04
2018-01-22T08:52:30.268Z,36.18
2018-01-22T08:54:58.575Z,33.50
2018-01-22T08:57:26.835Z,35.74
2018-01-22T08:59:57.036Z,40.36
2018-01-22T09:02:25.277Z,54.12
2018-01-22T09:04:53.525Z,56.48
2018-01-22T09:07:21.801Z,48.90
2018-01-22T09:09:51.024Z,67.34
2018-01-22T09:12:19.332Z,70.76
2018-01-22T09:14:49.580Z,69.10
2018-01-22T09:17:17.865Z,64.28
2018-01-22T09:19:50.077Z,59.66
2018-01-22T09:22:18.375Z,57.42
2018-01-22T09:24:47.601Z,63.72
2018-01-22T09:27:15.864Z,80.98
2018-01-22T09:29:47.521Z,58.46
2018-01-22T09:32:15.769Z,61.38
2018-01-22T09:34:44.140Z,58.22
2018-01-22T09:37:12.399Z,46.22
2018-01-22T09:39:41.625Z,33.34
2018-01-22T09:42:09.901Z,43.66
2018-01-22T09:44:40.100Z,51.36
2018-01-22T09:47:08.378Z,36.52
2018-01-22T09:49:36.662Z,41.16
2018-01-22T09:52:04.909Z,35.42
2018-01-22T09:54:35.195Z,37.64
2018-01-22T09:57:03.445Z,41.22
2018-01-22T09:59:35.884Z,38.34
2018-01-22T10:02:04.129Z,39.46
2018-01-22T10:04:32.409Z,39.94
2018-01-22T10:07:00.675Z,41.46
2018-01-22T10:09:30.073Z,33.78
2018-01-22T10:11:59.341Z,34.36
2018-01-22T10:14:27.599Z,35.00
2018-01-22T10:17:00.973Z,42.62
2018-01-22T10:19:30.551Z,45.56
2018-01-22T10:21:59.506Z,27.92
2018-01-22T10:24:28.885Z,32.86
2018-01-22T10:26:57.151Z,37.36
2018-01-22T10:29:25.412Z,27.40
2018-01-22T10:31:58.245Z,32.84
2018-01-22T10:34:26.485Z,29.20
2018-01-22T10:36:54.750Z,32.88
2018-01-22T10:39:23.033Z,42.10
2018-01-22T10:41:53.208Z,25.18
2018-01-22T10:44:21.512Z,24.48
2018-01-22T10:46:56.789Z,25.42
2018-01-22T10:49:25.047Z,32.28
2018-01-22T10:51:52.525Z,26.46
2018-01-22T10:54:20.827Z,19.38
2018-01-22T10:56:49.123Z,22.28
2018-01-22T10:59:17.382Z,24.38
2018-01-22T11:01:50.953Z,27.26
2018-01-22T11:04:19.340Z,22.48
2018-01-22T11:06:47.600Z,23.68
2018-01-22T11:09:15.865Z,19.68
2018-01-22T11:11:44.145Z,22.12
2018-01-22T11:14:12.408Z,23.86
2018-01-22T11:16:40.690Z,21.20
2018-01-22T11:19:08.952Z,19.52
2018-01-22T11:21:36.503Z,21.60
2018-01-22T11:24:04.749Z,22.44
2018-01-22T11:26:32.997Z,20.82
2018-01-22T11:29:01.292Z,17.18
2018-01-22T11:31:31.072Z,20.16
2018-01-22T11:34:00.562Z,18.80
2018-01-22T11:36:30.276Z,22.08
2018-01-22T11:38:58.521Z,20.92
2018-01-22T11:41:26.769Z,20.30
2018-01-22T11:43:55.045Z,25.00
2018-01-22T11:46:23.285Z,17.80
2018-01-22T11:48:51.573Z,17.50
2018-01-22T11:51:19.864Z,19.96
2018-01-22T11:53:48.160Z,20.84
2018-01-22T11:56:17.391Z,20.94
2018-01-22T11:58:45.696Z,19.12
2018-01-22T12:01:13.951Z,23.84
2018-01-22T12:03:42.193Z,23.32
2018-01-22T12:06:16.221Z,14.94
2018-01-22T12:08:44.467Z,14.32
2018-01-22T12:11:12.774Z,12.44
2018-01-22T12:13:41.044Z,17.52
2018-01-22T12:16:08.544Z,24.00
2018-01-22T12:18:36.844Z,14.44
2018-01-22T12:21:06.081Z,16.50
2018-01-22T12:23:34.329Z,16.46
2018-01-22T12:26:02.602Z,16.92
2018-01-22T12:28:30.846Z,21.70
2018-01-22T12:31:01.032Z,20.98
2018-01-22T12:33:30.615Z,16.66
2018-01-22T12:35:59.432Z,16.56
2018-01-22T12:38:27.721Z,23.80
2018-01-22T12:40:56.012Z,16.64
2018-01-22T12:43:23.495Z,14.78
2018-01-22T12:45:51.765Z,18.28
2018-01-22T12:48:20.056Z,10.90
2018-01-22T12:51:00.847Z,27.30
2018-01-22T12:53:29.962Z,22.50
2018-01-22T12:55:58.987Z,12.80
2018-01-22T12:58:27.261Z,17.14
2018-01-22T13:00:58.288Z,13.48
2018-01-22T13:03:26.557Z,17.40
2018-01-22T13:05:54.824Z,16.56
2018-01-22T13:08:23.098Z,20.48
2018-01-22T13:10:55.093Z,16.90
2018-01-22T13:13:22.614Z,13.58
2018-01-22T13:15:50.907Z,26.12
2018-01-22T13:18:23.480Z,21.42
2018-01-22T13:20:53.630Z,13.96
2018-01-22T13:23:21.923Z,15.30
2018-01-22T13:25:50.162Z,17.84
2018-01-22T13:28:36.049Z,16.10
2018-01-22T13:31:04.285Z,10.50
2018-01-22T13:33:32.528Z,10.72
2018-01-22T13:36:00.805Z,20.32
2018-01-22T13:38:46.234Z,26.66
2018-01-22T13:41:14.508Z,14.86
2018-01-22T13:43:42.759Z,15.44
2018-01-22T13:46:11.033Z,19.00
2018-01-22T13:48:49.727Z,25.78
2018-01-22T13:51:17.984Z,17.48
2018-01-22T13:53:46.224Z,19.18
2018-01-22T13:56:14.518Z,13.18
2018-01-22T13:58:48.246Z,14.52
2018-01-22T14:01:16.525Z,15.16
2018-01-22T14:03:51.081Z,13.50
2018-01-22T14:06:19.361Z,14.78
2018-01-22T14:08:48.548Z,19.78
2018-01-22T14:11:16.825Z,14.12
2018-01-22T14:13:46.103Z,32.78
2018-01-22T14:16:14.373Z,19.18
2018-01-22T14:18:52.475Z,23.76
2018-01-22T14:21:20.801Z,16.80
2018-01-22T14:23:49.915Z,24.32
2018-01-22T14:26:18.205Z,14.12
2018-01-22T14:28:50.826Z,14.90
2018-01-22T14:31:19.098Z,21.78
2018-01-22T14:33:50.013Z,16.92
2018-01-22T14:36:18.272Z,19.06
2018-01-22T14:38:48.487Z,29.42
2018-01-22T14:41:16.752Z,13.44
2018-01-22T14:43:55.908Z,14.60
2018-01-22T14:46:24.163Z,17.90
2018-01-22T14:48:53.463Z,17.62
2018-01-22T14:51:21.709Z,18.60
2018-01-22T14:53:53.560Z,20.38
2018-01-22T14:56:21.841Z,20.14
2018-01-22T14:58:53.819Z,27.86
2018-01-22T15:01:22.090Z,18.42
2018-01-22T15:03:51.344Z,23.22
2018-01-22T15:06:19.636Z,21.00
2018-01-22T15:08:54.861Z,28.90
2018-01-22T15:11:23.156Z,21.88
2018-01-22T15:13:51.407Z,26.12
2018-01-22T15:16:19.700Z,21.22
2018-01-22T15:18:58.997Z,27.06
2018-01-22T15:21:28.820Z,16.70
2018-01-22T15:23:57.150Z,21.46
2018-01-22T15:26:25.443Z,23.26
2018-01-22T15:28:53.686Z,20.90
2018-01-22T15:31:21.925Z,17.26
2018-01-22T15:33:50.201Z,15.90
2018-01-22T15:36:18.484Z,20.22
2018-01-22T15:38:46.726Z,17.88
2018-01-22T15:41:15.023Z,17.30
2018-01-22T15:43:46.746Z,30.02
2018-01-22T15:46:15.029Z,12.00
2018-01-22T15:48:43.289Z,38.92
2018-01-22T15:51:11.560Z,15.72
2018-01-22T15:53:40.817Z,23.76
2018-01-22T15:56:09.083Z,20.34
2018-01-22T15:58:42.248Z,20.24
2018-01-22T16:01:10.504Z,14.98
2018-01-22T16:03:38.759Z,17.82
2018-01-22T16:06:07.052Z,14.54
2018-01-22T16:08:35.307Z,19.50
2018-01-22T16:11:03.565Z,13.22
2018-01-22T16:13:33.781Z,11.98
2018-01-22T16:16:02.057Z,16.18
2018-01-22T16:18:30.297Z,17.40
2018-01-22T16:20:58.592Z,17.48
2018-01-22T16:23:26.852Z,15.86
2018-01-22T16:25:59.632Z,27.18
2018-01-22T16:28:28.555Z,17.74
2018-01-22T16:30:56.856Z,19.70
2018-01-22T16:33:25.093Z,16.88
2018-01-22T16:35:53.371Z,18.48
2018-01-22T16:38:21.703Z,24.46
2018-01-22T16:40:49.965Z,20.46
2018-01-22T16:43:19.228Z,19.80
2018-01-22T16:45:47.487Z,21.88
2018-01-22T16:48:18.912Z,15.60
2018-01-22T16:50:47.175Z,14.94
2018-01-22T16:53:16.440Z,14.66
2018-01-22T16:55:44.689Z,25.42
2018-01-22T16:58:12.925Z,19.22
2018-01-22T17:00:41.218Z,22.10
2018-01-22T17:03:09.457Z,26.42
2018-01-22T17:05:37.742Z,21.92
2018-01-22T17:08:05.987Z,22.34
2018-01-22T17:10:34.225Z,21.64
2018-01-22T17:13:08.149Z,27.40
2018-01-22T17:15:36.411Z,14.94
2018-01-22T17:18:05.609Z,19.30
2018-01-22T17:20:33.901Z,20.96
2018-01-22T17:23:04.127Z,21.70
2018-01-22T17:25:32.409Z,27.12
2018-01-22T17:28:03.809Z,28.64
2018-01-22T17:30:32.101Z,28.06
2018-01-22T17:33:00.345Z,16.96
2018-01-22T17:35:29.097Z,13.94
2018-01-22T17:37:58.176Z,17.82
2018-01-22T17:40:26.450Z,16.06
2018-01-22T17:42:54.745Z,20.82
2018-01-22T17:45:23.025Z,22.98
2018-01-22T17:47:52.221Z,27.36
2018-01-22T17:50:20.508Z,27.52
2018-01-22T17:52:48.804Z,15.86
2018-01-22T17:55:24.063Z,26.28
2018-01-22T17:57:52.390Z,15.92
2018-01-22T18:00:21.648Z,19.60
2018-01-22T18:02:49.927Z,23.02
2018-01-22T18:05:18.203Z,28.68
2018-01-22T18:07:46.473Z,22.56
2018-01-22T18:10:14.805Z,34.52
2018-01-22T18:12:43.068Z,27.78
2018-01-22T18:15:11.313Z,19.32
2018-01-22T18:17:41.536Z,14.74
2018-01-22T18:20:09.835Z,25.14
2018-01-22T18:22:39.082Z,26.34
2018-01-22T18:25:07.336Z,24.40
2018-01-22T18:27:35.425Z,21.64
2018-01-22T18:30:03.792Z,28.26
2018-01-22T18:32:33.016Z,19.56
2018-01-22T18:35:01.308Z,32.00
2018-01-22T18:37:29.643Z,17.52
2018-01-22T18:39:58.564Z,33.08
2018-01-22T18:42:28.623Z,36.56
2018-01-22T18:44:56.876Z,25.30
2018-01-22T18:47:25.233Z,24.70
2018-01-22T18:49:53.473Z,24.36
2018-01-22T18:52:21.709Z,26.54
2018-01-22T18:54:50.010Z,25.34
2018-01-22T18:57:18.259Z,16.74
2018-01-22T18:59:46.553Z,21.60
2018-01-22T19:02:14.817Z,24.90
2018-01-22T19:04:43.103Z,26.08
2018-01-22T19:07:11.398Z,31.78
2018-01-22T19:09:39.688Z,26.72
2018-01-22T19:12:08.923Z,31.08
2018-01-22T19:14:37.162Z,26.30
2018-01-22T19:17:09.765Z,29.28
2018-01-22T19:19:38.015Z,18.90
2018-01-22T19:22:06.359Z,22.46
2018-01-22T19:24:34.652Z,28.02
2018-01-22T19:27:03.009Z,30.76
2018-01-22T19:29:31.280Z,19.24
2018-01-22T19:32:00.152Z,13.38
2018-01-22T19:34:29.041Z,23.38
2018-01-22T19:37:00.297Z,20.96
2018-01-22T19:39:29.049Z,26.26
2018-01-22T19:41:58.219Z,15.90
2018-01-22T19:44:26.531Z,28.64
2018-01-22T19:47:13.796Z,23.06
2018-01-22T19:49:42.084Z,25.02
2018-01-22T19:52:20.288Z,27.12
2018-01-22T19:54:48.584Z,21.18
2018-01-22T19:57:20.409Z,19.02
2018-01-22T19:59:48.751Z,26.58
2018-01-22T20:02:20.462Z,29.26
2018-01-22T20:04:48.805Z,19.48
2018-01-22T20:07:17.050Z,17.24
2018-01-22T20:09:45.346Z,16.66
2018-01-22T20:12:13.679Z,19.16
2018-01-22T20:14:41.987Z,24.88
2018-01-22T20:17:11.291Z,25.80
2018-01-22T20:19:39.528Z,16.94
2018-01-22T20:22:07.866Z,18.36
2018-01-22T20:24:36.171Z,29.86
2018-01-22T20:27:10.339Z,27.72
2018-01-22T20:29:38.636Z,33.22
2018-01-22T20:32:09.968Z,23.34
2018-01-22T20:34:38.283Z,17.46
2018-01-22T20:37:07.437Z,17.84
2018-01-22T20:39:35.778Z,29.74
2018-01-22T20:42:06.070Z,19.16
2018-01-22T20:44:34.401Z,26.14
2018-01-22T20:47:02.651Z,23.14
2018-01-22T20:49:30.975Z,23.34
2018-01-22T20:52:00.638Z,23.40
2018-01-22T20:54:30.189Z,23.24
2018-01-22T20:56:59.390Z,23.42
2018-01-22T20:59:27.690Z,18.90
2018-01-22T21:01:55.952Z,26.94
2018-01-22T21:04:34.376Z,25.34
2018-01-22T21:07:01.863Z,24.86
2018-01-22T21:09:30.223Z,21.20
2018-01-22T21:11:58.464Z,24.50
2018-01-22T21:14:26.724Z,27.08
2018-01-22T21:16:55.040Z,24.66
2018-01-22T21:19:23.300Z,19.66
2018-01-22T21:21:51.596Z,26.84
2018-01-22T21:24:19.866Z,27.50
2018-01-22T21:26:49.097Z,24.82
2018-01-22T21:29:17.425Z,25.70
2018-01-22T21:31:45.733Z,22.36
2018-01-22T21:34:19.556Z,25.98
2018-01-22T21:36:47.849Z,19.46
2018-01-22T21:39:16.140Z,20.40
2018-01-22T21:41:44.416Z,33.62
2018-01-22T21:44:16.923Z,22.76
2018-01-22T21:46:45.262Z,24.10
2018-01-22T21:49:13.543Z,17.88
2018-01-22T21:51:41.913Z,25.74
2018-01-22T21:54:23.173Z,17.34
2018-01-22T21:56:51.476Z,21.54
2018-01-22T21:59:19.787Z,24.94
2018-01-22T22:01:48.081Z,28.30
2018-01-22T22:04:16.419Z,27.00
2018-01-22T22:06:44.715Z,27.18
2018-01-22T22:09:13.011Z,24.96
2018-01-22T22:11:41.271Z,17.72
2018-01-22T22:14:10.469Z,25.40
2018-01-22T22:16:38.741Z,22.26
2018-01-22T22:19:07.903Z,20.60
2018-01-22T22:21:36.254Z,24.06
2018-01-22T22:24:05.466Z,22.10
2018-01-22T22:26:33.700Z,21.16
2018-01-22T22:29:01.992Z,22.60
2018-01-22T22:31:30.261Z,20.72
2018-01-22T22:33:58.571Z,22.80
2018-01-22T22:36:26.833Z,29.10
2018-01-22T22:38:56.141Z,24.86
2018-01-22T22:41:24.395Z,19.80
2018-01-22T22:43:52.898Z,22.30
2018-01-22T22:46:21.155Z,23.58
2018-01-22T22:48:53.039Z,27.76
2018-01-22T22:51:21.305Z,22.62
2018-01-22T22:53:49.554Z,31.56
2018-01-22T22:56:17.844Z,12.66
2018-01-22T22:58:48.052Z,16.34
2018-01-22T23:01:16.288Z,31.22
2018-01-22T23:03:46.503Z,44.46
2018-01-22T23:06:14.810Z,15.70
2018-01-22T23:08:43.062Z,24.20
2018-01-22T23:11:11.347Z,15.62
2018-01-22T23:13:40.600Z,31.32
2018-01-22T23:16:08.849Z,23.78
2018-01-22T23:18:38.046Z,28.58
2018-01-22T23:21:06.285Z,16.52
2018-01-22T23:23:34.539Z,29.36
2018-01-22T23:26:02.828Z,18.06
2018-01-22T23:28:37.372Z,18.74
2018-01-22T23:31:05.641Z,26.06
2018-01-22T23:33:34.895Z,21.46
2018-01-22T23:36:03.181Z,23.36
2018-01-22T23:38:32.409Z,19.04
2018-01-22T23:41:00.654Z,23.12
2018-01-22T23:43:30.191Z,16.06
2018-01-22T23:45:57.681Z,25.32
2018-01-22T23:48:25.949Z,34.48
2018-01-22T23:50:54.237Z,28.80
2018-01-22T23:53:23.461Z,22.80
2018-01-22T23:55:51.709Z,24.08
2018-01-22T23:58:20.004Z,16.04
